Time;durP1;ratioP1;P1;durP2;ratioP2;P2;SDS_P1;SDS_P2;PMS_P1;PMS_P2;Temp;Humidity;BMP_temperature;BMP_pressure;BME280_temperature;BME280_humidity;BME280_pressure;Samples;Min_cycle;Max_cycle;Signal;HPM_P1;HPM_P2
2023/03/21 00:09:28;;;;;;;26.20;19.20;;;;;;;7.21;98.65;99382.21;435342;1258;139221;-73
2023/03/21 00:19:37;;;;;;;27.80;19.40;;;;;;;7.06;99.37;99379.69;435213;1256;139924;-73
2023/03/21 00:29:43;;;;;;;24.40;18.90;;;;;;;6.95;99.79;99372.42;436583;1259;139769;-74
2023/03/21 00:39:50;;;;;;;27.80;20.30;;;;;;;6.87;99.96;99373.88;435831;1256;139810;-73
2023/03/21 00:49:56;;;;;;;20.60;17.60;;;;;;;6.81;100.00;99368.30;436086;1258;138839;-75
2023/03/21 01:00:02;;;;;;;23.00;16.80;;;;;;;6.75;100.00;99360.44;436823;1259;139180;-73
2023/03/21 01:10:10;;;;;;;25.10;17.10;;;;;;;6.67;100.00;99363.42;436513;1256;196754;-75
2023/03/21 01:20:16;;;;;;;22.10;16.00;;;;;;;6.63;100.00;99362.25;437535;1259;138953;-73
2023/03/21 01:30:22;;;;;;;18.50;13.90;;;;;;;6.57;100.00;99355.41;437801;1256;139838;-74
2023/03/21 01:40:27;;;;;;;;;;;;;;;6.54;100.00;99352.23;437523;1259;139856;-74
2023/03/21 01:50:34;;;;;;;18.30;13.50;;;;;;;6.53;100.00;99345.17;437557;1256;125432;-74
2023/03/21 02:00:40;;;;;;;24.10;15.20;;;;;;;6.54;100.00;99324.61;437574;1256;139132;-74
2023/03/21 02:10:49;;;;;;;20.30;15.00;;;;;;;6.45;100.00;99323.17;435538;1254;140737;-74
2023/03/21 02:21:24;;;;;;;21.80;15.60;;;;;;;6.37;100.00;99322.48;435118;1259;139172;-73
2023/03/21 02:31:47;;;;;;;21.00;15.70;;;;;;;6.37;100.00;99327.73;435114;1258;139193;-73
2023/03/21 02:42:01;;;;;;;19.90;15.00;;;;;;;6.38;100.00;99321.21;435160;1259;140327;-74
2023/03/21 02:52:11;;;;;;;19.70;14.20;;;;;;;6.35;100.00;99320.33;438315;1259;139638;-73
2023/03/21 03:02:30;;;;;;;21.50;15.50;;;;;;;6.26;100.00;99320.84;436461;1254;139017;-74
2023/03/21 03:12:45;;;;;;;21.90;14.70;;;;;;;6.19;100.00;99324.29;435061;1260;139264;-73
2023/03/21 03:22:57;;;;;;;22.00;16.40;;;;;;;6.14;100.00;99323.67;435158;1257;139639;-72
2023/03/21 03:33:06;;;;;;;24.20;15.40;;;;;;;6.06;100.00;99324.58;435918;1257;139747;-73
2023/03/21 03:43:16;;;;;;;21.40;15.40;;;;;;;6.02;100.00;99326.48;434813;1260;141187;-73
2023/03/21 03:53:28;;;;;;;20.10;14.20;;;;;;;6.01;100.00;99320.96;435681;1258;139497;-71
2023/03/21 04:03:35;;;;;;;24.00;15.10;;;;;;;5.99;100.00;99308.38;435413;1260;139865;-73
2023/03/21 04:13:53;;;;;;;18.10;13.60;;;;;;;5.93;100.00;99313.89;436487;1254;142603;-74
2023/03/21 04:23:59;;;;;;;19.20;14.80;;;;;;;5.89;100.00;99317.89;435234;1258;139118;-74
2023/03/21 04:34:08;;;;;;;22.40;15.60;;;;;;;5.94;100.00;99322.17;435983;1256;140944;-74
2023/03/21 04:44:16;;;;;;;25.20;17.10;;;;;;;6.00;100.00;99321.72;436444;1258;139777;-73
2023/03/21 04:54:23;;;;;;;24.00;17.80;;;;;;;6.07;100.00;99320.02;437525;1259;139886;-73
2023/03/21 05:04:30;;;;;;;22.30;17.50;;;;;;;6.11;100.00;99323.30;434766;1260;139943;-73
2023/03/21 05:14:35;;;;;;;23.30;17.80;;;;;;;6.13;100.00;99323.38;434515;1258;139416;-74
2023/03/21 05:24:41;;;;;;;32.30;21.00;;;;;;;6.13;100.00;99329.63;434672;1257;140236;-73
2023/03/21 05:34:47;;;;;;;35.90;25.60;;;;;;;6.19;100.00;99336.30;434667;1260;139173;-74
2023/03/21 05:44:53;;;;;;;37.90;27.20;;;;;;;6.24;100.00;99346.13;436990;1260;139892;-73
2023/03/21 05:54:59;;;;;;;44.50;31.00;;;;;;;6.36;100.00;99346.55;434064;1254;139485;-73
2023/03/21 06:05:06;;;;;;;48.70;32.90;;;;;;;6.56;100.00;99354.44;435134;1259;140575;-73
2023/03/21 06:15:12;;;;;;;48.30;32.20;;;;;;;6.73;100.00;99361.05;437233;1256;139435;-71
2023/03/21 06:25:18;;;;;;;38.20;28.40;;;;;;;6.88;100.00;99366.69;434912;1259;139158;-73
2023/03/21 06:35:24;;;;;;;33.70;24.90;;;;;;;7.21;100.00;99372.48;435089;1255;140505;-72
2023/03/21 06:45:30;;;;;;;27.20;20.10;;;;;;;7.68;100.00;99379.85;435834;1254;138986;-73
2023/03/21 06:55:35;;;;;;;23.40;18.40;;;;;;;7.88;100.00;99383.48;435738;1258;141204;-71
2023/03/21 07:05:42;;;;;;;21.00;15.70;;;;;;;7.72;100.00;99388.00;435828;1254;139646;-73
2023/03/21 07:15:48;;;;;;;19.70;16.30;;;;;;;7.73;100.00;99394.75;435723;1255;140694;-72
2023/03/21 07:25:55;;;;;;;20.00;16.40;;;;;;;7.74;100.00;99404.99;436116;1254;139594;-72
2023/03/21 07:36:02;;;;;;;21.40;17.60;;;;;;;7.73;100.00;99407.65;436064;1254;139783;-72
2023/03/21 07:46:08;;;;;;;22.80;16.80;;;;;;;7.91;100.00;99408.90;435682;1254;139297;-72
2023/03/21 07:56:14;;;;;;;17.80;14.10;;;;;;;8.38;99.97;99411.16;435937;1259;139081;-72
2023/03/21 08:06:20;;;;;;;14.90;11.70;;;;;;;8.22;99.63;99417.63;435950;1255;139260;-72
2023/03/21 08:16:26;;;;;;;10.60;9.10;;;;;;;8.41;99.61;99422.69;435890;1254;140296;-74
2023/03/21 08:26:33;;;;;;;12.50;10.10;;;;;;;8.59;97.73;99425.85;436437;1254;139398;-73
2023/03/21 08:36:39;;;;;;;11.40;8.70;;;;;;;8.39;97.52;99427.33;438209;1254;140430;-71
2023/03/21 08:46:45;;;;;;;9.90;7.50;;;;;;;8.87;96.91;99434.04;435992;1254;138830;-73
2023/03/21 08:56:51;;;;;;;14.50;10.10;;;;;;;9.35;95.91;99439.19;436092;1254;139464;-73
2023/03/21 09:07:00;;;;;;;10.60;9.20;;;;;;;9.57;93.81;99451.09;435740;1254;140661;-74
2023/03/21 09:17:06;;;;;;;12.40;9.80;;;;;;;9.42;93.53;99458.70;436030;1255;139499;-74
2023/03/21 09:27:12;;;;;;;8.80;7.90;;;;;;;9.64;93.13;99459.60;442849;1255;140516;-72
2023/03/21 09:37:20;;;;;;;8.30;7.50;;;;;;;9.21;92.14;99464.10;438553;1256;138880;-73
2023/03/21 09:47:33;;;;;;;8.10;7.30;;;;;;;9.72;91.59;99468.91;436108;1254;139353;-74
2023/03/21 09:57:43;;;;;;;10.70;8.40;;;;;;;9.47;90.45;99477.76;437213;1254;140660;-72
2023/03/21 10:07:54;;;;;;;8.50;7.50;;;;;;;9.42;89.84;99481.58;437798;1256;139060;-72
2023/03/21 10:18:04;;;;;;;13.10;8.50;;;;;;;8.83;89.54;99483.80;435411;1259;138772;-73
2023/03/21 10:28:17;;;;;;;11.50;9.20;;;;;;;8.62;89.84;99491.11;435445;1254;140074;-72
2023/03/21 10:38:25;;;;;;;9.60;7.70;;;;;;;8.46;89.92;99501.61;435500;1258;139314;-72
2023/03/21 10:48:37;;;;;;;9.80;8.60;;;;;;;8.52;89.85;99507.75;435930;1259;139775;-73
2023/03/21 10:58:46;;;;;;;10.30;8.60;;;;;;;8.38;90.33;99507.25;436427;1254;139524;-73
2023/03/21 11:08:56;;;;;;;8.00;6.80;;;;;;;9.05;90.35;99503.50;435652;1259;139716;-73
2023/03/21 11:19:12;;;;;;;7.40;6.20;;;;;;;9.85;88.36;99499.04;436000;1259;139190;-74
2023/03/21 11:29:34;;;;;;;7.80;6.50;;;;;;;10.17;86.51;99496.38;437723;1258;139745;-73
2023/03/21 11:39:46;;;;;;;9.10;7.40;;;;;;;9.85;86.37;99489.61;435903;1254;140518;-73
2023/03/21 11:49:51;;;;;;;10.20;8.40;;;;;;;9.60;86.56;99489.55;436177;1258;138828;-72
2023/03/21 12:00:19;;;;;;;10.80;8.50;;;;;;;9.47;86.26;99486.36;435741;1254;138798;-73
2023/03/21 12:10:43;;;;;;;12.80;8.70;;;;;;;9.45;85.70;99486.11;437326;1254;138861;-74
2023/03/21 12:20:54;;;;;;;8.60;7.50;;;;;;;9.77;85.61;99482.06;437990;1254;140327;-71
2023/03/21 12:31:06;;;;;;;9.50;8.30;;;;;;;10.20;84.44;99472.72;436135;1254;139169;-73
2023/03/21 12:41:26;;;;;;;10.60;9.20;;;;;;;10.52;83.16;99466.48;439927;1254;138991;-73
2023/03/21 12:51:36;;;;;;;10.80;8.90;;;;;;;11.06;82.87;99459.07;438293;1256;139450;-71
2023/03/21 13:01:45;;;;;;;11.60;10.10;;;;;;;11.58;81.58;99457.95;436061;1254;139347;-73
2023/03/21 13:11:56;;;;;;;11.10;9.90;;;;;;;11.10;80.02;99454.73;436328;1255;139674;-72
2023/03/21 13:22:11;;;;;;;9.90;8.90;;;;;;;11.04;80.52;99448.53;436030;1258;139926;-73
2023/03/21 13:32:28;;;;;;;10.50;8.40;;;;;;;10.86;78.72;99452.18;436050;1259;139004;-73
2023/03/21 13:42:35;;;;;;;10.20;8.30;;;;;;;10.34;78.95;99444.02;435711;1254;139939;-72
2023/03/21 13:52:41;;;;;;;11.50;8.70;;;;;;;10.12;79.34;99438.93;435708;1254;139611;-72
2023/03/21 14:02:57;;;;;;;11.90;9.20;;;;;;;9.72;79.61;99435.34;435901;1254;138954;-74
2023/03/21 14:13:05;;;;;;;13.40;9.50;;;;;;;9.34;80.25;99428.23;436105;1255;138882;-73
2023/03/21 14:23:16;;;;;;;12.10;10.30;;;;;;;9.26;80.52;99428.19;437157;1254;141336;-73
2023/03/21 14:33:26;;;;;;;11.20;8.90;;;;;;;9.30;80.67;99419.20;435787;1258;139114;-72
2023/03/21 14:43:33;;;;;;;9.50;8.30;;;;;;;9.66;80.06;99404.45;436955;1257;141240;-72
2023/03/21 14:53:42;;;;;;;8.80;7.90;;;;;;;9.96;79.05;99402.04;435306;1255;139525;-72
2023/03/21 15:03:50;;;;;;;9.70;7.20;;;;;;;10.18;78.39;99397.44;437656;1259;139243;-74
2023/03/21 15:13:55;;;;;;;;;;;;;;;10.44;77.48;99396.83;438525;1254;138986;-75
2023/03/21 15:24:07;;;;;;;8.60;6.20;;;;;;;10.31;76.89;99400.82;438100;1255;126199;-74
2023/03/21 15:34:21;;;;;;;11.60;9.00;;;;;;;10.01;76.78;99399.07;438038;1256;140132;-74
2023/03/21 15:44:27;;;;;;;11.20;8.00;;;;;;;9.63;77.26;99389.25;438202;1256;139706;-75
2023/03/21 15:54:38;;;;;;;8.10;7.30;;;;;;;9.28;78.06;99382.15;438115;1254;140015;-77
2023/03/21 16:04:59;;;;;;;7.70;6.60;;;;;;;8.99;77.53;99371.00;437939;1255;138639;-77
2023/03/21 16:15:07;;;;;;;10.10;7.40;;;;;;;8.71;77.68;99368.64;438867;1259;140654;-76
2023/03/21 16:25:11;;;;;;;;;;;;;;;8.38;77.58;99377.48;437841;1257;139450;-76
2023/03/21 16:35:19;;;;;;;11.30;6.90;;;;;;;8.04;78.14;99383.80;437996;1254;126148;-77
2023/03/21 16:45:29;;;;;;;8.90;6.00;;;;;;;7.72;79.03;99393.26;438036;1256;138909;-75
2023/03/21 16:55:37;;;;;;;9.30;6.60;;;;;;;7.32;79.77;99400.28;438673;1257;138815;-76
2023/03/21 17:05:43;;;;;;;13.00;7.00;;;;;;;6.92;80.56;99407.73;438268;1254;138763;-77
2023/03/21 17:15:49;;;;;;;13.10;7.30;;;;;;;6.50;81.81;99420.99;438041;1255;139711;-77
2023/03/21 17:25:54;;;;;;;10.10;6.80;;;;;;;6.07;82.95;99423.21;438556;1255;139077;-69
2023/03/21 17:36:00;;;;;;;13.00;8.40;;;;;;;5.66;83.80;99431.19;435297;1258;139337;-68
2023/03/21 17:46:09;;;;;;;19.10;9.00;;;;;;;5.31;84.86;99438.65;435258;1259;142110;-68
2023/03/21 17:56:19;;;;;;;14.00;8.30;;;;;;;5.04;85.43;99447.48;435694;1259;139278;-68
2023/03/21 18:06:26;;;;;;;15.40;10.10;;;;;;;4.74;86.19;99456.18;451510;1254;139278;-68
2023/03/21 18:16:32;;;;;;;13.50;10.00;;;;;;;4.51;86.59;99463.89;438222;1254;140262;-69
2023/03/21 18:26:38;;;;;;;16.10;9.50;;;;;;;4.28;87.46;99465.52;435693;1256;138845;-70
2023/03/21 18:36:44;;;;;;;17.70;10.80;;;;;;;4.04;87.90;99467.48;435500;1256;140495;-69
2023/03/21 18:46:50;;;;;;;20.20;13.20;;;;;;;3.80;88.39;99472.22;435722;1259;141475;-69
2023/03/21 18:56:56;;;;;;;25.40;16.10;;;;;;;3.57;88.47;99470.63;436425;1257;137823;-69
2023/03/21 19:07:23;;;;;;;107.20;73.50;;;;;;;3.34;89.33;99480.98;436405;1256;138949;-69
2023/03/21 19:17:30;;;;;;;99.20;67.60;;;;;;;3.29;90.81;99479.42;436623;1254;139881;-69
2023/03/21 19:27:56;;;;;;;90.20;61.90;;;;;;;3.19;92.17;99476.65;436634;1259;139384;-69
2023/03/21 19:38:02;;;;;;;60.60;43.00;;;;;;;3.10;92.23;99480.45;436539;1259;139562;-70
2023/03/21 19:48:08;;;;;;;80.50;49.50;;;;;;;2.91;92.41;99479.70;436128;1259;140061;-68
2023/03/21 19:58:15;;;;;;;89.10;56.90;;;;;;;2.68;92.66;99472.16;435469;1254;141111;-70
2023/03/21 20:08:21;;;;;;;82.80;52.50;;;;;;;2.55;93.39;99472.08;435625;1259;140596;-68
2023/03/21 20:18:26;;;;;;;62.10;44.00;;;;;;;2.38;93.37;99464.17;436009;1256;139244;-69
2023/03/21 20:28:32;;;;;;;76.50;44.50;;;;;;;2.23;93.43;99465.48;436068;1259;139179;-69
2023/03/21 20:38:39;;;;;;;74.80;49.40;;;;;;;2.30;95.03;99461.31;435944;1259;138875;-70
2023/03/21 20:48:47;;;;;;;75.60;47.40;;;;;;;2.23;95.04;99460.49;435724;1259;140860;-70
2023/03/21 20:58:53;;;;;;;66.80;45.30;;;;;;;2.08;95.28;99460.96;435351;1259;139783;-69
2023/03/21 21:09:19;;;;;;;60.70;39.50;;;;;;;2.14;96.69;99459.56;434708;1259;139965;-68
2023/03/21 21:19:25;;;;;;;64.90;43.80;;;;;;;2.21;97.45;99455.35;437052;1259;139971;-68
2023/03/21 21:29:31;;;;;;;65.70;43.90;;;;;;;2.15;97.74;99448.30;436064;1259;139243;-70
2023/03/21 21:39:38;;;;;;;65.60;43.60;;;;;;;2.23;98.30;99454.27;435226;1254;140041;-67
2023/03/21 21:49:44;;;;;;;61.40;41.00;;;;;;;2.22;98.97;99458.94;434952;1259;139080;-66
2023/03/21 21:59:53;;;;;;;51.60;35.70;;;;;;;2.26;99.73;99453.64;434876;1259;139577;-68
2023/03/21 22:09:59;;;;;;;47.50;33.10;;;;;;;2.23;99.67;99444.92;435336;1259;139939;-67
2023/03/21 22:20:06;;;;;;;50.50;34.70;;;;;;;2.23;99.99;99433.55;435149;1259;139519;-67
2023/03/21 22:30:17;;;;;;;59.20;39.20;;;;;;;2.06;99.89;99437.35;435203;1259;140433;-68
2023/03/21 22:40:23;;;;;;;59.20;37.80;;;;;;;1.89;99.90;99434.59;434947;1259;141291;-67
2023/03/21 22:50:29;;;;;;;50.90;38.00;;;;;;;1.83;100.00;99431.50;435134;1254;140131;-68
2023/03/21 23:00:35;;;;;;;52.10;34.00;;;;;;;1.79;100.00;99428.84;435041;1260;141236;-68
2023/03/21 23:10:44;;;;;;;49.30;35.50;;;;;;;1.75;100.00;99421.39;435415;1259;140355;-68
2023/03/21 23:20:52;;;;;;;47.20;33.80;;;;;;;1.82;100.00;99417.54;435068;1260;140038;-67
2023/03/21 23:30:58;;;;;;;46.30;33.30;;;;;;;1.86;100.00;99417.59;435323;1255;139108;-67
2023/03/21 23:41:08;;;;;;;47.80;33.80;;;;;;;1.79;100.00;99415.76;434974;1260;139146;-67
2023/03/21 23:51:16;;;;;;;49.00;35.10;;;;;;;1.69;100.00;99409.48;435859;1258;141535;-69
